Time;durP1;ratioP1;P1;durP2;ratioP2;P2;SDS_P1;SDS_P2;PMS_P1;PMS_P2;Temp;Humidity;BMP_temperature;BMP_pressure;BME280_temperature;BME280_humidity;BME280_pressure;Samples;Min_cycle;Max_cycle;Signal;HPM_P1;HPM_P2
2022/05/10 00:00:03;;;;;;;7.55;4.43;;;;;;;19.17;56.50;101439.56;5206732;28;20049;-73
2022/05/10 00:02:36;;;;;;;7.13;4.20;;;;;;;19.12;56.44;101443.00;5204319;28;20051;-73
2022/05/10 00:05:09;;;;;;;8.55;4.25;;;;;;;19.06;56.96;101441.19;5204618;28;20081;-73
2022/05/10 00:07:41;;;;;;;6.35;4.15;;;;;;;18.97;57.88;101442.00;5208230;28;20502;-73
2022/05/10 00:10:14;;;;;;;6.22;3.80;;;;;;;18.85;58.23;101438.31;5211052;28;20050;-73
2022/05/10 00:12:46;;;;;;;9.82;4.35;;;;;;;18.75;59.23;101441.72;5219907;28;20047;-73
2022/05/10 00:15:20;;;;;;;7.78;4.45;;;;;;;18.63;60.14;101432.75;5210121;28;20045;-73
2022/05/10 00:17:52;;;;;;;7.70;4.63;;;;;;;18.51;60.66;101429.06;5219295;28;20049;-73
2022/05/10 00:20:27;;;;;;;8.05;4.25;;;;;;;18.38;61.15;101433.31;5210952;28;20045;-73
2022/05/10 00:22:59;;;;;;;6.63;4.30;;;;;;;18.27;61.77;101435.81;5221083;28;20053;-73
2022/05/10 00:25:32;;;;;;;5.97;4.20;;;;;;;18.17;62.38;101434.78;5219005;28;20053;-73
2022/05/10 00:28:04;;;;;;;7.57;4.47;;;;;;;18.08;62.58;101429.41;5223803;28;20049;-73
2022/05/10 00:30:39;;;;;;;6.43;3.72;;;;;;;18.00;62.67;101436.31;5217128;28;20053;-73
2022/05/10 00:33:15;;;;;;;8.30;4.22;;;;;;;17.93;62.18;101434.47;5221431;28;20048;-72
2022/05/10 00:35:48;;;;;;;6.43;4.15;;;;;;;17.92;61.95;101437.06;5225382;28;20053;-73
2022/05/10 00:38:21;;;;;;;7.72;4.22;;;;;;;17.87;62.64;101432.63;5222404;28;20051;-73
2022/05/10 00:40:54;;;;;;;8.45;4.68;;;;;;;17.82;63.04;101433.41;5212459;28;20402;-72
2022/05/10 00:43:30;;;;;;;6.80;4.32;;;;;;;17.75;63.51;101428.91;5205078;28;20060;-72
2022/05/10 00:46:07;;;;;;;6.00;4.00;;;;;;;17.68;63.84;101427.88;5213545;28;20132;-72
2022/05/10 00:48:46;;;;;;;6.50;4.18;;;;;;;17.65;64.02;101425.19;5220972;28;20044;-73
2022/05/10 00:51:21;;;;;;;6.60;3.90;;;;;;;17.60;64.22;101418.94;5218518;28;20045;-72
2022/05/10 00:53:59;;;;;;;5.22;4.10;;;;;;;17.53;64.49;101423.22;5216289;28;20049;-72
2022/05/10 00:56:38;;;;;;;5.50;4.10;;;;;;;17.51;64.36;101424.97;5210966;28;20410;-72
2022/05/10 00:59:16;;;;;;;7.32;4.72;;;;;;;17.49;64.56;101412.63;5225438;28;20045;-73
2022/05/10 01:01:53;;;;;;;6.10;4.40;;;;;;;17.44;64.59;101416.94;5229102;28;20045;-73
2022/05/10 01:04:29;;;;;;;9.00;4.30;;;;;;;17.37;64.97;101426.50;5228727;28;20405;-73
2022/05/10 01:07:04;;;;;;;6.68;4.28;;;;;;;17.32;65.34;101417.63;5228483;28;20140;-73
2022/05/10 01:09:41;;;;;;;7.07;4.70;;;;;;;17.28;65.50;101411.44;5228735;28;20057;-73
2022/05/10 01:12:19;;;;;;;5.57;4.28;;;;;;;17.25;65.70;101414.00;5228464;28;20397;-73
2022/05/10 01:14:54;;;;;;;6.75;4.57;;;;;;;17.21;65.88;101414.78;5228780;28;20639;-73
2022/05/10 01:17:28;;;;;;;5.32;4.18;;;;;;;17.18;66.07;101419.13;5228654;28;20065;-72
2022/05/10 01:20:00;;;;;;;6.97;4.55;;;;;;;17.09;66.59;101407.56;5228273;28;20052;-73
2022/05/10 01:22:45;;;;;;;6.85;4.50;;;;;;;17.02;67.08;101400.44;5227969;28;20049;-72
2022/05/10 01:25:34;;;;;;;6.53;4.82;;;;;;;16.95;67.85;101403.81;5228411;28;20053;-73
2022/05/10 01:28:19;;;;;;;10.43;5.35;;;;;;;16.89;68.27;101408.97;5228448;28;20049;-73
2022/05/10 01:30:51;;;;;;;7.47;4.25;;;;;;;16.84;68.62;101405.34;5228135;28;20045;-72
2022/05/10 01:33:30;;;;;;;6.40;4.97;;;;;;;16.82;68.66;101399.16;5227549;28;20057;-73
2022/05/10 01:36:14;;;;;;;8.45;4.30;;;;;;;16.79;68.88;101399.09;5228021;28;20049;-73
2022/05/10 01:38:56;;;;;;;7.07;4.40;;;;;;;16.77;69.24;101403.47;5228263;28;20496;-73
2022/05/10 01:41:37;;;;;;;8.45;4.55;;;;;;;16.74;69.39;101399.00;5228005;28;20051;-72
2022/05/10 01:44:17;;;;;;;7.60;5.22;;;;;;;16.70;69.58;101398.94;5228086;28;20060;-72
2022/05/10 01:46:52;;;;;;;7.63;4.72;;;;;;;16.69;69.57;101397.09;5228114;28;20049;-72
2022/05/10 01:49:31;;;;;;;6.93;4.72;;;;;;;16.69;69.35;101402.38;5228064;28;20053;-72
2022/05/10 01:52:09;;;;;;;5.80;4.53;;;;;;;16.68;69.11;101397.97;5227215;28;20051;-73
2022/05/10 01:55:04;;;;;;;6.97;4.90;;;;;;;16.64;69.32;101397.03;5227739;28;20056;-72
2022/05/10 01:57:38;;;;;;;7.78;4.75;;;;;;;16.58;69.50;101389.03;5227741;28;20063;-73
2022/05/10 02:00:16;;;;;;;7.53;4.65;;;;;;;16.54;69.52;101393.31;5227561;28;20053;-73
2022/05/10 02:02:51;;;;;;;7.22;4.82;;;;;;;16.56;69.40;101395.97;5227015;28;20128;-72
2022/05/10 02:05:29;;;;;;;9.10;5.30;;;;;;;16.52;69.47;101392.41;5227426;28;20049;-73
2022/05/10 02:08:05;;;;;;;7.38;4.72;;;;;;;16.45;69.82;101392.25;5227458;28;20066;-73
2022/05/10 02:10:40;;;;;;;8.43;5.57;;;;;;;16.37;70.50;101378.97;5226991;28;20468;-73
2022/05/10 02:13:15;;;;;;;7.53;5.45;;;;;;;16.37;70.46;101378.97;5226948;28;20053;-73
2022/05/10 02:15:54;;;;;;;9.23;4.78;;;;;;;16.36;70.18;101376.28;5227724;28;20413;-72
2022/05/10 02:18:32;;;;;;;9.60;5.05;;;;;;;16.34;70.02;101373.63;5227375;28;20059;-73
2022/05/10 02:21:11;;;;;;;8.30;5.15;;;;;;;16.30;70.20;101366.53;5227805;28;20049;-73
2022/05/10 02:23:48;;;;;;;7.68;4.80;;;;;;;16.26;70.41;101370.84;5226810;28;20510;-73
2022/05/10 02:26:25;;;;;;;8.88;5.18;;;;;;;16.23;70.43;101369.88;5227382;28;20053;-73
2022/05/10 02:29:03;;;;;;;8.50;5.70;;;;;;;16.21;70.21;101372.47;5227611;28;20049;-73
2022/05/10 02:34:30;;;;;;;8.13;4.82;;;;;;;16.11;70.87;101378.41;5226676;28;20167;-73
2022/05/10 02:37:02;;;;;;;7.93;4.57;;;;;;;16.01;71.20;101384.31;5226996;28;20485;-73
2022/05/10 02:39:34;;;;;;;8.10;5.20;;;;;;;15.90;71.50;101376.19;5227037;28;20048;-72
2022/05/10 02:42:09;;;;;;;9.18;5.15;;;;;;;15.83;72.07;101381.28;5226327;28;20049;-73
2022/05/10 02:44:41;;;;;;;8.60;5.43;;;;;;;15.77;72.62;101384.63;5226661;28;20164;-73
2022/05/10 02:47:15;;;;;;;9.20;4.85;;;;;;;15.71;73.15;101381.88;5226859;28;20594;-72
2022/05/10 02:49:47;;;;;;;9.70;5.78;;;;;;;15.68;73.74;101379.19;5226676;28;20056;-73
2022/05/10 02:52:20;;;;;;;8.13;5.20;;;;;;;15.65;74.15;101380.00;5226409;28;20084;-72
2022/05/10 02:54:55;;;;;;;9.75;5.35;;;;;;;15.63;74.17;101375.56;5226538;28;20405;-73
2022/05/10 02:57:28;;;;;;;9.77;5.68;;;;;;;15.60;74.43;101373.72;5226747;28;20053;-72
2022/05/10 03:00:04;;;;;;;8.88;6.05;;;;;;;15.57;74.96;101370.13;5226428;28;20056;-73
2022/05/10 03:02:42;;;;;;;9.13;4.97;;;;;;;15.59;74.82;101373.69;5226205;28;20402;-72
2022/05/10 03:05:15;;;;;;;9.45;5.53;;;;;;;15.63;74.31;101375.56;5226208;28;20048;-72
2022/05/10 03:07:47;;;;;;;8.30;5.53;;;;;;;15.65;74.30;101373.88;5226133;28;20045;-72
2022/05/10 03:10:20;;;;;;;8.40;4.88;;;;;;;15.62;74.08;101368.53;5226549;28;20504;-73
2022/05/10 03:12:52;;;;;;;9.23;5.30;;;;;;;15.59;74.24;101357.94;5225915;28;20041;-73
2022/05/10 03:15:24;;;;;;;7.82;5.30;;;;;;;15.60;74.06;101362.31;5226238;28;20055;-73
2022/05/10 03:17:58;;;;;;;8.35;5.40;;;;;;;15.59;73.66;101355.31;5225756;28;20052;-73
2022/05/10 03:20:30;;;;;;;9.65;5.38;;;;;;;15.55;74.17;101356.06;5226332;28;20045;-73
2022/05/10 03:23:03;;;;;;;9.68;5.05;;;;;;;15.55;74.07;101343.81;5225053;28;20045;-72
2022/05/10 03:25:35;;;;;;;8.23;5.32;;;;;;;15.56;73.71;101342.06;5226003;28;20049;-73
2022/05/10 03:28:08;;;;;;;8.25;5.18;;;;;;;15.58;73.58;101346.50;5225841;28;20049;-73
2022/05/10 03:30:41;;;;;;;7.63;5.50;;;;;;;15.60;73.66;101344.81;5226169;28;20049;-73
2022/05/10 03:33:15;;;;;;;7.93;4.93;;;;;;;15.63;73.44;101344.03;5225478;28;20060;-73
2022/05/10 03:35:47;;;;;;;9.95;5.63;;;;;;;15.60;73.00;101334.31;5225776;28;20102;-72
2022/05/10 03:38:19;;;;;;;8.07;5.25;;;;;;;15.61;72.63;101335.19;5225606;28;20049;-74
2022/05/10 03:40:52;;;;;;;10.35;5.45;;;;;;;15.64;72.06;101335.28;5225802;28;20070;-72
2022/05/10 03:43:26;;;;;;;9.45;5.63;;;;;;;15.70;71.92;101338.03;5225446;28;20055;-72
2022/05/10 03:45:58;;;;;;;8.05;4.88;;;;;;;15.76;71.49;101332.94;5225619;28;20057;-72
2022/05/10 03:48:32;;;;;;;8.73;5.82;;;;;;;15.83;71.13;101334.84;5225110;28;20045;-73
2022/05/10 03:51:04;;;;;;;8.98;5.40;;;;;;;15.85;70.80;101327.00;5225471;28;20053;-73
2022/05/10 03:53:37;;;;;;;9.38;5.72;;;;;;;15.87;70.91;101338.44;5224965;28;20049;-73
2022/05/10 03:56:10;;;;;;;7.10;5.32;;;;;;;15.85;71.09;101327.91;5225432;28;20049;-73
2022/05/10 03:58:43;;;;;;;9.00;5.15;;;;;;;15.85;71.14;101333.16;5318023;22;20167;-86
2022/05/10 04:01:15;;;;;;;8.95;5.53;;;;;;;15.84;71.51;101333.97;5224114;23;20033;-72
2022/05/10 04:03:50;;;;;;;8.80;5.43;;;;;;;15.81;72.01;101328.66;5246896;28;20055;-72
2022/05/10 04:06:22;;;;;;;8.43;5.45;;;;;;;15.80;71.79;101326.91;5247416;28;20050;-71
2022/05/10 04:08:56;;;;;;;8.63;5.78;;;;;;;15.77;72.04;101326.81;5247022;28;20052;-70
2022/05/10 04:11:28;;;;;;;7.95;5.68;;;;;;;15.79;72.31;101327.75;5246861;28;20044;-71
2022/05/10 04:14:00;;;;;;;9.65;6.05;;;;;;;15.79;72.49;101335.63;5246122;28;20056;-71
2022/05/10 04:16:33;;;;;;;9.07;5.22;;;;;;;15.77;72.91;101332.06;5246045;28;20049;-70
2022/05/10 04:19:06;;;;;;;8.02;5.15;;;;;;;15.75;73.14;101331.16;5246323;28;20048;-70
2022/05/10 04:21:39;;;;;;;7.57;5.15;;;;;;;15.78;73.21;101326.00;5246208;28;20385;-71
2022/05/10 04:24:11;;;;;;;8.90;4.72;;;;;;;15.82;73.28;101324.28;5246399;28;20399;-70
2022/05/10 04:26:44;;;;;;;7.55;5.22;;;;;;;15.84;73.42;101320.84;5246346;28;20051;-71
2022/05/10 04:29:17;;;;;;;7.80;5.43;;;;;;;15.85;73.70;101322.63;5246183;28;20049;-71
2022/05/10 04:31:49;;;;;;;8.68;6.07;;;;;;;15.88;74.04;101324.44;5246187;28;20556;-70
2022/05/10 04:34:23;;;;;;;8.73;5.40;;;;;;;15.87;74.34;101323.53;5248767;28;20056;-70
2022/05/10 04:36:55;;;;;;;8.82;5.82;;;;;;;15.88;74.28;101330.56;5250253;28;20052;-72
2022/05/10 04:41:24;;;;;;;8.48;5.15;;;;;;;15.88;74.42;101322.69;5250322;28;20044;-72
2022/05/10 04:42:20;;;;;;;9.90;5.22;;;;;;;15.89;73.83;101321.81;5249739;28;20056;-71
2022/05/10 04:44:52;;;;;;;8.98;5.32;;;;;;;15.97;73.93;101324.63;5249973;28;20136;-71
2022/05/10 04:47:26;;;;;;;8.55;5.05;;;;;;;16.02;73.98;101328.22;5249736;28;20044;-71
2022/05/10 04:50:01;;;;;;;11.23;5.72;;;;;;;16.06;74.19;101329.19;5250251;28;20063;-71
2022/05/10 04:52:33;;;;;;;9.27;5.53;;;;;;;16.10;74.55;101331.03;5250242;28;20053;-70
2022/05/10 04:55:07;;;;;;;8.95;5.45;;;;;;;16.13;74.65;101331.09;5250048;28;20044;-71
2022/05/10 04:57:41;;;;;;;7.63;5.30;;;;;;;16.18;74.92;101334.72;5249864;28;20056;-71
2022/05/10 05:00:15;;;;;;;10.30;5.50;;;;;;;16.20;74.64;101330.38;5249925;28;20057;-70
2022/05/10 05:02:47;;;;;;;8.18;5.57;;;;;;;16.23;74.58;101338.31;5249219;28;20055;-71
2022/05/10 05:05:21;;;;;;;9.13;5.50;;;;;;;16.29;74.25;101338.44;5249743;28;20048;-71
2022/05/10 05:07:53;;;;;;;7.40;5.15;;;;;;;16.35;74.03;101338.56;5249731;28;20378;-71
2022/05/10 05:10:26;;;;;;;7.55;5.45;;;;;;;16.39;74.09;101337.75;5249765;28;20048;-72
2022/05/10 05:12:58;;;;;;;7.95;5.20;;;;;;;16.44;73.97;101338.75;5249649;28;20051;-70
2022/05/10 05:15:31;;;;;;;8.13;5.22;;;;;;;16.48;73.83;101340.56;5249453;28;20055;-70
2022/05/10 05:18:04;;;;;;;7.68;5.18;;;;;;;16.52;73.65;101342.41;5249349;28;20052;-71
2022/05/10 05:20:37;;;;;;;9.43;5.13;;;;;;;16.56;73.53;101343.34;5249545;28;20504;-71
2022/05/10 05:23:11;;;;;;;10.48;5.60;;;;;;;16.60;73.82;101341.66;5249445;28;20580;-69
2022/05/10 05:25:43;;;;;;;7.97;4.90;;;;;;;16.65;73.48;101342.66;5249119;28;20059;-71
2022/05/10 05:28:16;;;;;;;9.25;5.15;;;;;;;16.69;73.37;101345.38;5248967;28;20049;-71
2022/05/10 05:30:49;;;;;;;7.60;5.20;;;;;;;16.74;73.33;101343.72;5249389;28;20052;-69
2022/05/10 05:33:22;;;;;;;8.40;5.28;;;;;;;16.78;73.37;101344.69;5249672;28;20041;-71
2022/05/10 05:35:55;;;;;;;10.55;5.60;;;;;;;16.83;73.82;101353.56;5249688;28;20054;-71
2022/05/10 05:38:28;;;;;;;8.70;5.00;;;;;;;16.90;74.32;101350.16;5249676;28;20053;-71
2022/05/10 05:41:01;;;;;;;10.70;5.45;;;;;;;16.94;74.41;101346.72;5249517;28;20503;-71
2022/05/10 05:43:34;;;;;;;7.85;5.68;;;;;;;17.02;74.63;101345.13;5249237;28;20048;-71
2022/05/10 05:46:08;;;;;;;7.53;5.15;;;;;;;17.14;73.67;101338.25;5248826;28;20044;-71
2022/05/10 05:48:40;;;;;;;9.32;5.15;;;;;;;17.29;72.39;101341.16;5248975;28;20053;-71
2022/05/10 05:51:13;;;;;;;6.80;5.05;;;;;;;17.49;70.94;101342.38;5248881;28;20381;-71
2022/05/10 05:53:46;;;;;;;7.07;4.80;;;;;;;17.85;69.78;101333.22;5249160;28;20473;-70
2022/05/10 05:56:18;;;;;;;6.80;4.78;;;;;;;18.38;68.02;101333.88;5248742;28;20048;-70
2022/05/10 05:58:50;;;;;;;7.93;5.10;;;;;;;18.96;65.62;101341.56;5248774;28;20408;-69
2022/05/10 06:01:23;;;;;;;8.27;5.00;;;;;;;19.51;62.72;101342.91;5248211;28;20056;-69
2022/05/10 06:03:55;;;;;;;8.00;4.75;;;;;;;19.97;61.13;101342.31;5248277;28;20045;-70
2022/05/10 06:06:29;;;;;;;10.30;5.13;;;;;;;20.47;58.50;101346.94;5248576;28;20556;-70
2022/05/10 06:09:01;;;;;;;6.97;4.70;;;;;;;20.85;57.04;101344.38;5248361;28;20430;-69
2022/05/10 06:11:34;;;;;;;7.10;4.28;;;;;;;21.22;56.29;101345.28;5248281;28;20049;-70
2022/05/10 06:14:06;;;;;;;9.43;4.90;;;;;;;21.56;54.64;101340.88;5248442;28;20047;-69
2022/05/10 06:16:41;;;;;;;8.15;4.47;;;;;;;21.91;53.08;101348.75;5248417;28;20044;-69
2022/05/10 06:19:13;;;;;;;;;;;;;;;22.16;50.65;101344.25;5248672;28;20051;-66
2022/05/10 06:21:46;;;;;;;5.60;4.13;;;;;;;22.20;49.83;101340.72;5248089;28;20365;-69
2022/05/10 06:24:19;;;;;;;7.60;3.90;;;;;;;22.34;49.24;101342.41;5248198;28;20393;-70
2022/05/10 06:26:51;;;;;;;7.72;4.20;;;;;;;22.50;48.02;101349.44;5248203;28;20494;-68
2022/05/10 06:29:24;;;;;;;7.25;4.60;;;;;;;22.53;47.00;101349.41;5247943;28;20048;-69
2022/05/10 06:31:56;;;;;;;6.43;4.30;;;;;;;22.58;46.84;101338.75;5248044;28;20051;-69
2022/05/10 06:34:28;;;;;;;7.40;4.28;;;;;;;22.63;47.19;101342.28;5247976;28;20075;-72
2022/05/10 06:37:02;;;;;;;7.35;4.72;;;;;;;22.87;47.12;101338.56;5247473;28;20062;-71
2022/05/10 06:39:34;;;;;;;8.48;4.95;;;;;;;23.33;46.53;101339.06;5247942;28;20058;-69
2022/05/10 06:42:07;;;;;;;9.13;4.47;;;;;;;23.73;45.21;101338.72;5247710;28;20045;-70
2022/05/10 06:44:40;;;;;;;6.78;4.13;;;;;;;23.92;44.15;101340.28;5247472;28;20048;-71
2022/05/10 06:47:12;;;;;;;6.65;4.03;;;;;;;23.84;43.79;101331.50;5247574;28;20503;-70
2022/05/10 06:49:44;;;;;;;5.88;4.38;;;;;;;23.81;43.96;101334.22;5247623;28;20570;-70
2022/05/10 06:52:19;;;;;;;7.97;4.45;;;;;;;23.77;44.06;101333.34;5247306;28;20045;-70
2022/05/10 06:54:52;;;;;;;6.65;4.30;;;;;;;23.56;44.23;101317.59;5247502;28;20140;-70
2022/05/10 06:57:24;;;;;;;6.13;4.28;;;;;;;23.34;45.01;101318.69;5247544;28;20067;-70
2022/05/10 06:59:56;;;;;;;6.18;4.50;;;;;;;23.23;45.65;101317.00;5247397;28;20045;-70
2022/05/10 07:02:28;;;;;;;7.47;4.35;;;;;;;23.17;45.32;101313.53;5246988;28;20182;-70
2022/05/10 07:05:01;;;;;;;6.25;4.18;;;;;;;23.02;45.87;101310.13;5247309;28;20408;-69
2022/05/10 07:07:34;;;;;;;7.88;3.42;;;;;;;23.02;46.09;101306.56;5247321;28;20044;-66
2022/05/10 07:10:08;;;;;;;7.40;4.60;;;;;;;23.21;46.01;101313.50;5247027;28;20048;-66
2022/05/10 07:12:43;;;;;;;6.80;4.00;;;;;;;23.39;45.56;101307.09;5246808;28;20052;-64
2022/05/10 07:15:19;;;;;;;6.97;4.43;;;;;;;23.55;45.49;101305.19;5247282;28;20052;-68
2022/05/10 07:17:52;;;;;;;8.15;4.40;;;;;;;23.63;44.84;101305.13;5247107;28;20493;-67
2022/05/10 07:20:25;;;;;;;5.03;3.45;;;;;;;23.73;44.79;101312.09;5246995;28;20145;-65
2022/05/10 07:22:58;;;;;;;8.30;4.10;;;;;;;23.85;44.89;101311.97;5246571;28;20040;-66
2022/05/10 07:25:31;;;;;;;7.07;4.35;;;;;;;24.05;44.64;101304.59;5246841;28;20195;-64
2022/05/10 07:28:05;;;;;;;6.47;4.05;;;;;;;24.23;44.37;101308.81;5246766;28;20048;-66
2022/05/10 07:30:40;;;;;;;7.68;4.18;;;;;;;24.34;43.74;101306.06;5246984;28;20048;-66
2022/05/10 07:33:13;;;;;;;6.53;3.78;;;;;;;24.39;44.05;101305.97;5246912;28;20060;-67
2022/05/10 07:38:37;;;;;;;6.47;4.55;;;;;;;24.64;43.29;101302.91;5249572;28;20170;-64
2022/05/10 07:41:11;;;;;;;5.78;4.10;;;;;;;24.84;42.95;101299.06;5251422;28;20055;-64
2022/05/10 07:43:43;;;;;;;7.15;4.15;;;;;;;24.89;43.19;101294.53;5245992;28;20055;-66
2022/05/10 07:46:16;;;;;;;5.20;3.97;;;;;;;25.09;42.35;101297.78;5245176;28;20048;-67
2022/05/10 07:48:49;;;;;;;6.65;3.95;;;;;;;25.14;42.45;101298.59;5232100;28;20127;-64
2022/05/10 07:51:21;;;;;;;6.07;4.13;;;;;;;25.36;42.62;101287.53;5235662;28;20049;-64
2022/05/10 07:53:55;;;;;;;7.53;4.07;;;;;;;25.50;42.10;101293.50;5224660;28;20057;-64
2022/05/10 07:56:27;;;;;;;6.13;4.35;;;;;;;25.68;41.79;101290.44;5227439;28;20048;-65
2022/05/10 07:58:59;;;;;;;5.88;3.97;;;;;;;25.98;41.55;101291.66;5228970;28;20116;-66
2022/05/10 08:01:32;;;;;;;6.65;3.90;;;;;;;26.20;41.36;101289.41;5230776;28;20508;-68
2022/05/10 08:04:05;;;;;;;6.07;4.20;;;;;;;26.44;41.03;101289.81;5227101;28;20049;-68
2022/05/10 08:06:37;;;;;;;6.95;3.65;;;;;;;26.70;40.35;101286.53;5225282;28;20118;-68
2022/05/10 08:09:11;;;;;;;5.22;3.83;;;;;;;26.91;39.65;101280.63;5224438;28;20199;-66
2022/05/10 08:11:44;;;;;;;6.32;4.03;;;;;;;27.20;39.88;101287.97;5221785;28;20139;-67
2022/05/10 08:14:16;;;;;;;6.22;3.80;;;;;;;27.51;38.91;101276.41;5225662;28;20045;-66
2022/05/10 08:16:48;;;;;;;7.70;3.72;;;;;;;27.88;38.23;101280.75;5225597;28;20053;-66
2022/05/10 08:19:21;;;;;;;6.60;3.95;;;;;;;28.45;37.71;101277.25;5225302;28;20045;-66
2022/05/10 08:21:56;;;;;;;5.90;3.80;;;;;;;28.96;36.40;101268.47;5224732;28;20052;-66
2022/05/10 08:24:30;;;;;;;7.10;3.63;;;;;;;29.42;35.82;101279.34;5203688;28;20758;-67
2022/05/10 08:27:03;;;;;;;5.88;3.88;;;;;;;29.79;35.00;101267.25;5193710;28;20052;-61
2022/05/10 08:38:31;;;;;;;2.33;2.13;;;30.90;55.90;;;31.65;31.24;101274.00;5261065;27;20154;-62
2022/05/10 08:41:09;;;;;;;4.43;2.53;;;30.30;55.50;;;31.12;32.15;101266.44;5215442;28;20048;-59
2022/05/10 08:43:47;;;;;;;4.38;2.45;;;29.80;56.10;;;30.73;32.64;101259.13;5191921;28;20049;-59
2022/05/10 08:46:27;;;;;;;4.13;2.70;;;29.30;56.80;;;30.51;33.16;101254.59;5226746;28;20052;-60
2022/05/10 08:49:03;;;;;;;3.17;2.45;;;29.00;57.20;;;30.42;33.80;101254.97;5222839;28;20063;-64
2022/05/10 08:51:36;;;;;;;4.50;2.72;;;28.80;58.30;;;30.43;34.80;101247.78;5222703;28;20140;-70
2022/05/10 08:54:09;;;;;;;4.53;2.80;;;28.60;59.80;;;30.41;34.98;101247.84;5222493;28;20045;-57
2022/05/10 08:56:46;;;;;;;5.35;2.72;;;28.50;59.80;;;30.60;34.33;101249.78;5222697;28;20053;-60
2022/05/10 08:59:30;;;;;;;5.20;2.72;;;28.60;59.40;;;30.99;33.43;101248.13;5222656;28;20056;-59
2022/05/10 09:02:08;;;;;;;8.18;3.00;;;28.80;59.10;;;31.63;32.78;101248.94;5222226;28;20053;-60
2022/05/10 09:04:47;;;;;;;3.10;2.53;;;29.10;58.40;;;32.37;31.41;101233.78;5222514;28;20071;-60
2022/05/10 09:07:38;;;;;;;4.50;2.40;;;29.60;57.40;;;32.55;30.60;101235.56;5222396;28;20570;-59
2022/05/10 09:10:20;;;;;;;3.20;2.50;;;29.90;56.30;;;32.62;30.17;101230.75;5222480;28;20530;-59
2022/05/10 09:12:58;;;;;;;3.17;2.60;;;30.10;55.40;;;32.98;29.67;101236.09;5222152;28;20499;-59
2022/05/10 09:15:36;;;;;;;3.83;3.03;;;30.30;55.00;;;33.30;28.48;101239.81;5222508;28;20057;-59
2022/05/10 09:18:10;;;;;;;3.55;2.30;;;30.70;53.60;;;33.21;28.23;101230.38;5222114;28;20075;-69
2022/05/10 09:20:53;;;;;;;4.80;2.92;;;30.80;52.80;;;33.13;27.46;101232.63;5221835;28;20045;-68
2022/05/10 09:23:35;;;;;;;2.97;2.20;;;30.90;51.30;;;33.06;27.59;101224.88;5221587;28;20056;-68
2022/05/10 09:26:13;;;;;;;3.03;2.50;;;31.10;51.20;;;32.89;26.90;101223.09;5221717;28;20053;-69
2022/05/10 09:28:53;;;;;;;3.55;2.33;;;31.10;50.10;;;32.62;26.50;101230.75;5221653;28;20048;-70
2022/05/10 09:37:23;;;;;;;2.60;1.98;;;30.70;49.00;;;31.85;28.00;101212.00;5221579;28;20467;-70
2022/05/10 09:40:09;;;;;;;4.50;2.22;;;30.60;49.90;;;31.84;27.31;101215.63;5218090;28;20055;-69
2022/05/10 09:42:45;;;;;;;3.30;2.38;;;30.50;49.20;;;31.76;26.80;101202.50;5219665;28;20049;-68
2022/05/10 09:45:21;;;;;;;2.88;2.22;;;30.50;48.50;;;31.70;27.53;101208.16;5216552;28;20045;-70
2022/05/10 09:48:02;;;;;;;4.07;2.38;;;30.40;49.20;;;31.77;27.95;101206.06;5207094;28;20084;-70
2022/05/10 09:50:37;;;;;;;3.70;2.20;;;30.50;49.80;;;31.84;27.45;101207.56;5197517;28;20121;-69
2022/05/10 09:53:18;;;;;;;2.75;2.22;;;30.50;49.10;;;31.77;26.81;101201.53;5197107;28;20050;-69
2022/05/10 09:56:02;;;;;;;2.95;2.33;;;30.50;48.30;;;31.74;27.24;101198.09;5197571;28;20128;-69
2022/05/10 10:01:15;;;;;;;3.28;2.35;;;30.40;48.30;;;31.22;27.29;101201.34;5206356;28;20080;-71
2022/05/10 10:03:47;;;;;;;3.10;2.03;;;30.10;48.20;;;30.93;27.66;101199.94;5208293;28;20052;-75
2022/05/10 10:06:23;;;;;;;2.50;2.22;;;29.90;48.60;;;30.73;27.94;101184.66;5207817;28;20049;-73
2022/05/10 10:08:57;;;;;;;3.80;2.38;;;29.60;48.80;;;30.83;28.88;101189.63;5205242;28;20087;-74
2022/05/10 10:11:34;;;;;;;3.08;2.30;;;29.60;49.70;;;31.07;28.43;101181.38;5187590;28;20437;-73
2022/05/10 10:14:09;;;;;;;2.33;2.03;;;29.80;49.90;;;31.34;28.12;101178.41;5187520;28;20042;-72
2022/05/10 10:16:51;;;;;;;2.35;2.05;;;29.90;49.50;;;31.43;28.30;101172.63;5143695;28;20132;-74
2022/05/10 10:19:38;;;;;;;3.47;2.15;;;30.10;49.90;;;31.52;27.56;101179.38;5176749;28;20111;-71
2022/05/10 10:22:15;;;;;;;3.65;2.05;;;30.10;49.00;;;31.62;27.41;101175.28;5207901;28;20049;-72
2022/05/10 10:24:54;;;;;;;2.92;1.92;;;30.30;48.90;;;31.67;27.31;101165.19;5207723;28;20045;-73
2022/05/10 10:27:35;;;;;;;1.85;1.73;;;30.30;48.70;;;31.73;27.08;101169.41;5207340;28;20075;-72
2022/05/10 10:30:19;;;;;;;2.85;1.90;;;30.40;48.10;;;31.71;26.66;101171.31;5200526;28;20050;-74
2022/05/10 10:32:59;;;;;;;2.33;2.13;;;30.40;47.90;;;31.72;26.20;101162.28;5186651;28;20060;-74
2022/05/10 10:35:38;;;;;;;2.22;1.85;;;30.40;47.00;;;31.58;26.16;101160.25;5197953;28;20050;-72
2022/05/10 10:38:21;;;;;;;3.13;2.25;;;30.30;47.00;;;31.66;26.17;101162.56;5206897;28;20124;-72
2022/05/10 10:41:01;;;;;;;2.38;2.17;;;30.30;46.60;;;31.59;26.71;101162.84;5207459;28;20054;-72
2022/05/10 10:43:42;;;;;;;2.72;1.92;;;30.30;47.50;;;31.66;26.93;101157.19;5207318;28;20550;-74
2022/05/10 10:46:25;;;;;;;2.38;1.92;;;30.30;47.80;;;31.73;26.44;101147.84;5205884;28;20055;-71
2022/05/10 10:49:05;;;;;;;2.00;1.77;;;30.40;47.30;;;31.86;26.25;101135.56;5207139;28;20049;-71
2022/05/10 10:51:37;;;;;;;3.15;1.95;;;30.50;47.30;;;31.84;26.11;101145.56;5207155;28;20053;-73
2022/05/10 10:54:17;;;;;;;2.53;1.90;;;30.50;47.10;;;31.86;25.88;101147.22;5206541;28;20140;-75
2022/05/10 10:57:22;;;;;;;3.55;1.90;;;30.50;46.80;;;31.84;25.78;101137.47;5207345;28;20132;-76
2022/05/10 11:00:12;;;;;;;3.33;2.35;;;30.60;46.10;;;31.57;25.65;101143.19;5183794;28;20060;-74
2022/05/10 11:03:08;;;;;;;3.15;2.00;;;30.40;46.20;;;31.28;26.41;101140.97;5206846;28;20063;-73
2022/05/10 11:06:17;;;;;;;3.05;2.20;;;30.20;46.60;;;31.00;26.13;101134.13;5206212;28;20054;-71
2022/05/10 11:09:07;;;;;;;2.95;2.03;;;29.90;46.30;;;30.92;26.80;101128.22;5205015;28;20048;-74
2022/05/10 11:12:00;;;;;;;2.30;1.92;;;29.80;47.20;;;31.07;27.18;101124.81;5204028;28;20052;-74
2022/05/10 11:15:02;;;;;;;3.15;2.15;;;29.80;47.40;;;31.23;26.63;101127.72;5185038;28;20049;-75
2022/05/10 11:17:53;;;;;;;3.67;2.22;;;29.90;47.10;;;31.21;26.27;101112.56;5185509;28;20134;-75
2022/05/10 11:20:39;;;;;;;3.47;2.03;;;30.00;46.60;;;31.11;26.10;101119.31;5185813;28;20471;-77
2022/05/10 11:23:25;;;;;;;2.20;2.00;;;29.90;46.20;;;31.11;26.77;101116.63;5185438;28;20112;-75
2022/05/10 11:26:16;;;;;;;2.20;1.92;;;29.90;47.20;;;31.08;27.22;101113.09;5185768;28;20053;-76
2022/05/10 11:29:21;;;;;;;6.50;2.05;;;29.90;47.60;;;31.00;27.99;101107.22;5185770;28;20050;-74
2022/05/10 11:32:10;;;;;;;3.10;2.40;;;29.90;48.10;;;30.90;27.37;101107.69;5185447;28;20056;-72
2022/05/10 11:35:16;;;;;;;2.58;1.92;;;29.80;47.70;;;30.72;27.35;101096.81;5185573;28;20113;-75
2022/05/10 11:37:58;;;;;;;2.45;2.03;;;29.60;47.60;;;30.59;28.07;101092.88;5180564;28;20052;-74
2022/05/10 11:41:00;;;;;;;3.40;2.13;;;29.50;48.00;;;30.50;28.53;101088.75;5185681;28;20489;-73
2022/05/10 11:44:37;;;;;;;2.20;2.00;;;29.40;48.30;;;30.51;29.00;101086.94;5185235;28;20050;-72
2022/05/10 11:48:15;;;;;;;3.83;2.20;;;29.40;49.30;;;30.75;27.05;101098.47;5185187;28;20050;-74
2022/05/10 11:51:43;;;;;;;2.60;2.20;;;29.50;47.60;;;30.58;27.70;101084.84;5118680;29;20147;-75
2022/05/10 11:54:42;;;;;;;4.03;2.10;;;29.50;47.50;;;30.40;27.36;101082.03;5107578;28;20567;-73
2022/05/10 11:57:19;;;;;;;2.85;1.88;;;29.40;47.10;;;30.25;27.83;101082.69;5184724;28;20064;-71
2022/05/10 11:59:52;;;;;;;2.20;2.00;;;29.20;47.50;;;30.15;28.63;101075.97;5184818;28;20050;-78
2022/05/10 12:02:50;;;;;;;2.13;1.83;;;29.10;48.40;;;30.04;28.53;101073.69;5185051;28;20057;-76
2022/05/10 12:05:27;;;;;;;2.58;2.20;;;29.00;48.10;;;29.97;27.93;101066.81;5149645;28;20064;-67
2022/05/10 12:08:02;;;;;;;2.70;1.92;;;29.00;47.90;;;29.88;28.69;101067.22;5184381;28;20045;-67
2022/05/10 12:10:42;;;;;;;3.30;1.90;;;28.80;48.20;;;29.74;29.12;101073.16;5184612;28;20542;-65